FMMI/TNR METAR and TAF weather

Enter ICAO airport designator
Station Type Date Time Source
FMMI METAR 2022/06/25 23:00 UTC NOAA

FMMI 252300Z VRB03KT 9999 FEW010 BKN017 11/11 Q1025 NOSIG


Station Type Date Time Source
FMMI Decoded METAR 2022/06/25 23:00 UTC NOAA

Antananarivo / Ivato, Madagascar (FMMI) 18-48S 047-29E 1276M
Jun 25, 2022 - 07:00 PM EDT / 2022.06.25 2300 UTC
Wind: Variable at 3 MPH (3 KT):0
Visibility: greater than 7 mile(s):0
Sky conditions: mostly cloudy
Temperature: 51 F (11 C)
Dew Point: 51 F (11 C)
Relative Humidity: 100%
Pressure (altimeter): 30.27 in. Hg (1025 hPa)
ob: FMMI 252300Z VRB03KT 9999 FEW010 BKN017 11/11 Q1025 NOSIG
cycle: 23

Station Type Date Time Source
FMMI TAF 2022/06/25 18:06 UTC NOAA

TAF FMMI 251700Z 2518/2624 VRB02KT 9999 FEW017 BKN020 PROB40 2601/2606 1500 BR BKN004
BECMG 2606/2608 12012KT PROB40
TEMPO 2620/2624 4500 DZRA BKN007

Example: see airport list